Time;durP1;ratioP1;P1;durP2;ratioP2;P2;SDS_P1;SDS_P2;PMS_P1;PMS_P2;Temp;Humidity;BMP_temperature;BMP_pressure;BME280_temperature;BME280_humidity;BME280_pressure;Samples;Min_cycle;Max_cycle;Signal;HPM_P1;HPM_P2
2023/06/07 04:07:38;;;;;;;4.07;3.77;;;12.50;99.90;;;;;;5015952;28;20541;-62
2023/06/07 04:10:04;;;;;;;2.80;2.60;;;12.50;99.90;;;;;;5017248;28;20900;-63
2023/06/07 04:12:30;;;;;;;3.67;3.27;;;12.50;99.90;;;;;;5017358;28;20200;-63
2023/06/07 04:14:56;;;;;;;2.75;2.55;;;12.70;99.90;;;;;;5016904;28;20476;-63
2023/06/07 04:17:21;;;;;;;3.23;2.97;;;12.80;99.90;;;;;;5017236;28;20503;-62
2023/06/07 04:19:49;;;;;;;3.30;3.10;;;12.90;99.90;;;;;;5017295;28;20191;-63
2023/06/07 04:22:14;;;;;;;4.30;3.80;;;13.00;99.90;;;;;;5017266;28;20566;-63
2023/06/07 04:24:40;;;;;;;5.60;3.00;;;13.10;99.90;;;;;;5016684;28;20431;-63
2023/06/07 04:27:11;;;;;;;3.50;3.30;;;13.20;99.90;;;;;;5017094;28;20882;-62
2023/06/07 04:29:40;;;;;;;3.60;3.37;;;13.40;99.90;;;;;;5017393;28;20170;-62
2023/06/07 04:32:07;;;;;;;3.13;2.90;;;13.60;99.90;;;;;;5017084;28;20412;-62
2023/06/07 04:34:32;;;;;;;4.13;3.73;;;13.70;99.90;;;;;;5015667;28;20432;-63
2023/06/07 04:36:58;;;;;;;3.67;3.33;;;14.00;99.90;;;;;;5017011;28;20448;-63
2023/06/07 04:39:24;;;;;;;2.90;2.70;;;14.20;99.90;;;;;;5016838;28;20451;-63
2023/06/07 04:41:52;;;;;;;4.30;4.00;;;14.50;99.90;;;;;;5016676;28;20205;-63
2023/06/07 04:44:28;;;;;;;4.13;3.83;;;14.60;99.90;;;;;;5016336;28;20210;-63
2023/06/07 04:46:59;;;;;;;3.80;3.50;;;14.70;99.90;;;;;;5016869;28;20731;-64
2023/06/07 04:49:25;;;;;;;3.43;3.23;;;14.70;99.90;;;;;;5016842;28;20451;-63
2023/06/07 04:51:55;;;;;;;4.30;3.00;;;14.80;99.90;;;;;;5016670;28;20418;-64
2023/06/07 04:54:20;;;;;;;3.57;3.37;;;14.90;99.90;;;;;;5016018;28;20441;-63
2023/06/07 04:56:46;;;;;;;3.07;2.87;;;14.90;99.90;;;;;;5016404;28;20763;-63
2023/06/07 04:59:12;;;;;;;3.60;3.40;;;14.90;99.90;;;;;;5016424;28;20514;-63
2023/06/07 05:01:38;;;;;;;4.00;3.57;;;14.90;99.90;;;;;;5016040;28;20182;-63
2023/06/07 05:04:03;;;;;;;3.00;2.80;;;14.90;99.90;;;;;;5016032;28;20810;-63
2023/06/07 05:06:31;;;;;;;2.87;2.77;;;14.90;99.90;;;;;;5016192;28;20187;-64
2023/06/07 05:08:56;;;;;;;3.40;3.20;;;15.00;99.90;;;;;;5016270;28;20186;-63
2023/06/07 05:11:22;;;;;;;3.03;2.83;;;15.10;99.90;;;;;;5016227;28;20411;-64
2023/06/07 05:13:47;;;;;;;3.70;3.50;;;15.10;99.90;;;;;;5016200;28;20170;-63
2023/06/07 05:16:16;;;;;;;3.43;3.10;;;15.10;99.90;;;;;;5016206;28;20692;-63
2023/06/07 05:18:46;;;;;;;3.30;3.00;;;15.10;99.90;;;;;;5015959;28;20229;-63
2023/06/07 05:21:13;;;;;;;3.70;3.47;;;15.10;99.90;;;;;;5016086;28;20445;-63
2023/06/07 05:23:39;;;;;;;2.87;2.63;;;15.20;99.90;;;;;;5015858;28;20423;-63
2023/06/07 05:26:05;;;;;;;5.40;3.50;;;15.30;99.90;;;;;;5015940;28;20433;-63
2023/06/07 05:28:30;;;;;;;4.00;3.70;;;15.50;99.90;;;;;;5015933;28;20755;-64
2023/06/07 05:30:56;;;;;;;3.97;3.67;;;15.70;99.90;;;;;;5015942;28;20687;-64
2023/06/07 05:33:22;;;;;;;4.60;3.90;;;15.90;99.90;;;;;;5015597;28;20237;-64
2023/06/07 05:35:47;;;;;;;3.87;3.57;;;16.00;99.90;;;;;;5015838;28;20295;-64
2023/06/07 05:38:13;;;;;;;3.30;3.10;;;16.30;99.90;;;;;;5015604;28;20434;-64
2023/06/07 05:40:39;;;;;;;3.00;2.80;;;16.70;99.90;;;;;;5015722;28;20204;-64
2023/06/07 05:43:06;;;;;;;4.13;3.83;;;17.10;99.90;;;;;;5015231;28;20207;-64
2023/06/07 05:45:31;;;;;;;4.33;3.30;;;17.30;99.90;;;;;;5015393;28;20190;-63
2023/06/07 05:47:57;;;;;;;3.90;3.33;;;17.40;99.90;;;;;;5015649;28;20474;-64
2023/06/07 05:50:23;;;;;;;3.47;3.17;;;17.50;99.90;;;;;;5015334;28;20175;-64
2023/06/07 05:52:56;;;;;;;3.60;3.30;;;17.80;99.90;;;;;;5015253;28;20649;-63
2023/06/07 05:55:23;;;;;;;3.10;2.90;;;18.00;99.90;;;;;;5014915;28;20429;-64
2023/06/07 05:57:49;;;;;;;4.00;3.70;;;18.10;99.90;;;;;;5015303;28;20449;-64
2023/06/07 06:00:16;;;;;;;4.10;3.80;;;18.10;99.90;;;;;;5015199;28;20919;-64
2023/06/07 06:02:45;;;;;;;3.17;2.97;;;18.00;99.90;;;;;;5015206;28;20412;-64
2023/06/07 06:05:11;;;;;;;4.10;3.80;;;18.10;99.90;;;;;;5014682;28;20436;-64
2023/06/07 06:07:37;;;;;;;3.90;3.60;;;18.10;99.90;;;;;;5014862;28;20433;-64
2023/06/07 06:10:04;;;;;;;5.20;4.70;;;18.00;99.90;;;;;;5015254;28;20745;-63
2023/06/07 06:12:33;;;;;;;4.10;3.70;;;18.00;99.90;;;;;;5013984;28;20245;-63
2023/06/07 06:15:00;;;;;;;3.90;3.57;;;17.90;99.90;;;;;;5014614;28;20793;-64
2023/06/07 06:17:26;;;;;;;3.80;3.50;;;18.00;99.90;;;;;;5014833;28;20424;-63
2023/06/07 06:19:51;;;;;;;4.63;4.00;;;18.10;99.90;;;;;;5014854;28;20821;-64
2023/06/07 06:22:17;;;;;;;3.93;3.50;;;18.20;99.90;;;;;;5014728;28;20589;-64
2023/06/07 06:24:42;;;;;;;4.20;3.80;;;18.30;99.90;;;;;;5014377;28;20189;-64
2023/06/07 06:27:09;;;;;;;3.63;3.33;;;18.50;99.90;;;;;;4997120;28;20210;-64
2023/06/07 06:29:35;;;;;;;4.50;4.10;;;18.60;99.90;;;;;;5014466;28;20190;-64
2023/06/07 06:32:00;;;;;;;3.93;3.63;;;18.70;99.90;;;;;;5014711;28;20418;-64
2023/06/07 06:34:28;;;;;;;3.93;3.60;;;18.70;99.90;;;;;;5014245;28;20229;-64
2023/06/07 06:36:53;;;;;;;3.77;3.53;;;18.60;99.90;;;;;;5014548;28;20186;-64
2023/06/07 06:39:19;;;;;;;3.70;3.40;;;18.60;99.90;;;;;;4996782;28;20819;-64
2023/06/07 06:41:45;;;;;;;2.90;2.70;;;18.60;99.90;;;;;;5014464;28;20174;-64
2023/06/07 06:44:11;;;;;;;3.00;2.80;;;18.60;99.90;;;;;;5013889;28;20967;-64
2023/06/07 06:46:37;;;;;;;3.27;3.07;;;18.80;99.90;;;;;;5014233;28;20170;-64
2023/06/07 06:49:03;;;;;;;3.70;3.50;;;18.90;99.90;;;;;;5014277;28;20179;-63
2023/06/07 06:51:28;;;;;;;3.90;3.53;;;19.00;99.90;;;;;;5014197;28;20463;-64
2023/06/07 06:53:54;;;;;;;3.43;3.20;;;19.00;99.90;;;;;;5014123;28;20174;-64
2023/06/07 06:56:21;;;;;;;2.83;2.53;;;19.20;99.90;;;;;;4996769;28;20190;-64
2023/06/07 06:58:46;;;;;;;2.93;2.70;;;19.30;99.90;;;;;;5014145;28;20203;-64
2023/06/07 07:01:18;;;;;;;3.40;3.10;;;19.30;99.90;;;;;;5013993;28;20966;-64
2023/06/07 07:03:43;;;;;;;2.83;2.63;;;19.40;99.90;;;;;;5014095;28;20409;-64
2023/06/07 07:06:09;;;;;;;3.40;3.03;;;19.40;99.90;;;;;;5014114;28;20499;-64
2023/06/07 07:08:36;;;;;;;3.77;3.47;;;19.60;99.90;;;;;;5014158;28;20178;-64
2023/06/07 07:11:02;;;;;;;3.70;3.40;;;19.90;99.90;;;;;;5013946;28;20253;-65
2023/06/07 07:13:27;;;;;;;3.27;3.07;;;20.00;99.90;;;;;;5013630;28;20444;-64
2023/06/07 07:15:53;;;;;;;3.10;2.80;;;20.00;99.90;;;;;;5013679;28;20432;-65
2023/06/07 07:18:18;;;;;;;3.10;2.90;;;20.10;99.90;;;;;;5014012;28;20210;-64
2023/06/07 07:20:45;;;;;;;3.00;2.80;;;20.30;99.90;;;;;;5013810;28;20170;-65
2023/06/07 07:23:11;;;;;;;3.97;3.10;;;20.50;99.90;;;;;;5013573;28;20175;-64
2023/06/07 07:25:37;;;;;;;2.30;2.20;;;20.70;99.90;;;;;;5013931;28;20440;-64
2023/06/07 07:28:03;;;;;;;2.80;2.60;;;21.10;99.90;;;;;;5013919;28;20441;-65
2023/06/07 07:30:28;;;;;;;2.87;2.67;;;21.50;99.90;;;;;;4996332;28;20707;-65
2023/06/07 07:32:56;;;;;;;2.90;2.70;;;21.90;99.90;;;;;;5013879;28;20181;-65
2023/06/07 07:35:22;;;;;;;2.67;2.47;;;22.50;99.90;;;;;;5013401;28;20656;-62
2023/06/07 07:37:49;;;;;;;2.80;2.60;;;23.30;99.90;;;;;;5013624;28;20496;-65
2023/06/07 07:40:15;;;;;;;2.70;2.50;;;24.20;97.00;;;;;;5013557;28;20760;-64
2023/06/07 07:42:40;;;;;;;3.00;2.80;;;25.20;96.80;;;;;;5013693;28;20489;-63
2023/06/07 07:45:07;;;;;;;2.67;2.47;;;26.40;94.20;;;;;;5013178;28;20249;-63
2023/06/07 07:47:33;;;;;;;2.37;2.17;;;27.60;93.00;;;;;;5013616;28;20174;-64
2023/06/07 07:49:59;;;;;;;2.50;2.40;;;28.90;91.10;;;;;;5013766;28;20392;-63
2023/06/07 07:52:25;;;;;;;2.87;2.70;;;30.00;86.00;;;;;;5013914;28;20419;-64
2023/06/07 07:54:51;;;;;;;3.00;2.80;;;30.80;81.50;;;;;;5013295;28;20543;-64
2023/06/07 07:57:16;;;;;;;3.00;2.80;;;31.40;77.20;;;;;;5013417;28;20463;-64
2023/06/07 07:59:43;;;;;;;2.60;2.50;;;31.90;75.20;;;;;;5013572;28;20175;-63
2023/06/07 08:02:08;;;;;;;2.47;2.37;;;32.30;73.40;;;;;;5013368;28;20182;-64
2023/06/07 08:04:34;;;;;;;2.90;2.73;;;32.50;72.00;;;;;;5013180;28;20422;-64
2023/06/07 08:07:00;;;;;;;3.10;2.90;;;32.40;70.30;;;;;;5013215;28;20277;-63
2023/06/07 08:09:26;;;;;;;2.80;2.70;;;32.30;69.80;;;;;;5013411;28;20199;-64
2023/06/07 08:11:51;;;;;;;2.90;2.70;;;31.90;71.40;;;;;;5013383;28;20182;-63
2023/06/07 08:14:18;;;;;;;2.40;2.30;;;32.30;69.70;;;;;;5012990;28;20735;-64
2023/06/07 08:16:44;;;;;;;4.40;4.10;;;32.60;68.70;;;;;;5013526;28;20518;-63
2023/06/07 08:19:10;;;;;;;2.40;2.30;;;33.00;65.40;;;;;;5013134;28;20512;-63
2023/06/07 08:21:36;;;;;;;3.37;3.17;;;33.50;66.00;;;;;;5013311;28;20409;-63
2023/06/07 08:24:02;;;;;;;2.37;2.27;;;34.20;64.90;;;;;;5012860;28;20896;-64
2023/06/07 08:26:27;;;;;;;2.67;2.47;;;34.90;61.70;;;;;;5013209;28;20175;-64
2023/06/07 08:28:53;;;;;;;2.53;2.43;;;35.10;59.70;;;;;;5013189;28;20171;-63
2023/06/07 08:31:19;;;;;;;2.50;2.30;;;34.40;59.30;;;;;;5013316;28;20180;-63
2023/06/07 08:33:44;;;;;;;2.77;2.57;;;33.60;60.00;;;;;;5012885;28;20182;-62
2023/06/07 08:36:10;;;;;;;2.20;2.10;;;32.70;63.20;;;;;;5015429;28;20195;-63
2023/06/07 08:38:39;;;;;;;2.80;2.63;;;32.90;65.60;;;;;;5016707;28;20190;-63
2023/06/07 08:41:05;;;;;;;2.60;2.40;;;33.10;63.90;;;;;;5016783;28;20168;-63
2023/06/07 08:43:31;;;;;;;2.37;2.27;;;33.40;64.00;;;;;;5016455;28;20483;-63
2023/06/07 08:45:57;;;;;;;2.10;2.00;;;33.80;63.30;;;;;;5016678;28;20294;-63
2023/06/07 08:48:25;;;;;;;2.53;2.43;;;34.30;62.50;;;;;;5016707;28;20175;-63
2023/06/07 08:50:53;;;;;;;2.10;2.00;;;34.80;62.00;;;;;;5016606;28;20400;-63
2023/06/07 08:53:26;;;;;;;1.87;1.77;;;35.00;59.60;;;;;;5016307;28;20413;-63
2023/06/07 08:55:53;;;;;;;2.47;2.37;;;35.10;58.50;;;;;;4999419;28;20429;-63
2023/06/07 08:58:20;;;;;;;2.50;2.40;;;34.70;58.90;;;;;;5016477;28;20468;-62
2023/06/07 09:00:46;;;;;;;2.40;2.30;;;34.80;59.30;;;;;;5016397;28;20486;-63
2023/06/07 09:03:12;;;;;;;2.10;2.00;;;35.40;59.10;;;;;;5016217;28;20464;-63
2023/06/07 09:05:37;;;;;;;2.20;2.10;;;35.80;58.00;;;;;;5016135;28;20778;-63
2023/06/07 09:08:03;;;;;;;1.93;1.83;;;36.00;57.60;;;;;;5016481;28;20270;-63
2023/06/07 09:10:29;;;;;;;1.97;1.87;;;36.50;56.20;;;;;;5016255;28;20175;-63
2023/06/07 09:12:55;;;;;;;1.90;1.73;;;36.60;55.80;;;;;;5015889;28;20410;-63
2023/06/07 09:15:21;;;;;;;1.70;1.70;;;36.70;55.70;;;;;;5015519;28;20483;-63
2023/06/07 09:17:55;;;;;;;1.80;1.70;;;36.60;55.20;;;;;;5015975;28;20207;-63
2023/06/07 09:20:23;;;;;;;1.80;1.80;;;36.40;55.70;;;;;;5016041;28;20745;-62
2023/06/07 09:22:59;;;;;;;2.50;2.40;;;35.50;56.10;;;;;;5015728;28;20418;-63
2023/06/07 09:25:27;;;;;;;2.03;1.93;;;33.90;57.60;;;;;;4998008;28;20532;-63
2023/06/07 09:27:53;;;;;;;2.30;2.10;;;33.20;59.40;;;;;;5015693;28;20458;-63
2023/06/07 09:30:19;;;;;;;1.53;1.47;;;33.00;59.90;;;;;;5015759;28;20446;-62
2023/06/07 09:32:45;;;;;;;1.97;1.87;;;32.60;59.90;;;;;;5015704;28;20479;-63
2023/06/07 09:35:15;;;;;;;2.20;2.10;;;32.00;61.00;;;;;;5015307;28;20430;-65
2023/06/07 09:37:45;;;;;;;1.97;1.87;;;31.10;62.10;;;;;;5015664;28;20217;-62
2023/06/07 09:40:12;;;;;;;1.83;1.73;;;29.80;65.20;;;;;;5015777;28;20497;-64
2023/06/07 09:42:38;;;;;;;1.87;1.77;;;28.70;67.70;;;;;;5015468;28;20406;-65
2023/06/07 09:45:10;;;;;;;1.80;1.70;;;28.00;69.00;;;;;;5015342;28;20459;-64
2023/06/07 09:47:36;;;;;;;1.83;1.73;;;27.30;70.70;;;;;;5014333;28;20183;-65
2023/06/07 09:50:12;;;;;;;1.77;1.67;;;27.00;74.00;;;;;;5015434;28;20437;-64
2023/06/07 09:52:39;;;;;;;1.70;1.60;;;27.70;72.50;;;;;;5015437;28;20418;-65
2023/06/07 09:55:06;;;;;;;1.60;1.50;;;28.70;70.00;;;;;;5014675;28;20922;-64
2023/06/07 09:57:34;;;;;;;1.47;1.37;;;29.70;67.70;;;;;;5014908;28;20417;-63
2023/06/07 10:00:15;;;;;;;1.10;1.10;;;30.90;65.00;;;;;;5015007;28;20807;-63
2023/06/07 10:02:46;;;;;;;2.13;2.03;;;32.30;62.70;;;;;;5015075;28;20455;-63
2023/06/07 10:05:13;;;;;;;1.83;1.73;;;33.80;59.00;;;;;;5014835;28;20425;-63
2023/06/07 10:07:42;;;;;;;1.53;1.50;;;34.30;58.80;;;;;;5014886;28;20422;-63
2023/06/07 10:10:12;;;;;;;1.80;1.70;;;34.80;57.70;;;;;;5014907;28;20401;-63
2023/06/07 10:12:42;;;;;;;1.70;1.60;;;35.20;56.70;;;;;;5014955;28;20410;-63
2023/06/07 10:15:10;;;;;;;1.87;1.77;;;35.50;55.10;;;;;;4996697;28;20434;-62
2023/06/07 10:17:49;;;;;;;2.07;1.97;;;35.30;55.20;;;;;;5014549;28;20426;-63
2023/06/07 10:20:26;;;;;;;1.50;1.50;;;34.60;56.00;;;;;;5014963;28;20437;-62
2023/06/07 10:23:00;;;;;;;1.53;1.53;;;33.40;57.20;;;;;;5014781;28;20414;-63
2023/06/07 10:25:30;;;;;;;1.27;1.27;;;32.20;58.60;;;;;;5014560;28;20408;-63
2023/06/07 10:28:14;;;;;;;1.40;1.30;;;30.90;59.60;;;;;;4997464;28;20446;-63
2023/06/07 10:30:46;;;;;;;3.50;3.20;;;29.80;62.20;;;;;;5014538;28;20384;-62
2023/06/07 10:33:12;;;;;;;1.83;1.73;;;29.10;64.50;;;;;;5014058;28;20401;-62
2023/06/07 10:35:39;;;;;;;1.40;1.30;;;28.50;65.90;;;;;;5014370;28;20408;-63
2023/06/07 10:38:04;;;;;;;1.63;1.53;;;28.00;68.10;;;;;;5014532;28;20417;-63
2023/06/07 10:40:31;;;;;;;1.80;1.70;;;27.80;68.20;;;;;;5014528;28;20377;-63
2023/06/07 10:42:57;;;;;;;1.40;1.30;;;27.60;70.00;;;;;;5014517;28;20572;-63
2023/06/07 10:45:23;;;;;;;1.80;1.47;;;27.70;70.70;;;;;;5013998;28;20487;-63
2023/06/07 10:47:49;;;;;;;1.83;1.73;;;28.00;70.00;;;;;;5014502;28;20427;-63
2023/06/07 10:50:27;;;;;;;1.10;1.10;;;28.50;70.50;;;;;;5014497;28;20171;-63
2023/06/07 10:53:02;;;;;;;1.43;1.33;;;29.20;67.50;;;;;;5014533;28;20174;-63
2023/06/07 10:55:31;;;;;;;1.40;1.33;;;29.60;65.00;;;;;;5014185;28;20415;-63
2023/06/07 10:58:00;;;;;;;1.77;1.67;;;29.90;66.50;;;;;;5013822;28;20788;-63
2023/06/07 11:00:31;;;;;;;1.40;1.40;;;30.10;64.10;;;;;;5014275;28;20460;-63
2023/06/07 11:03:06;;;;;;;1.70;1.60;;;30.10;63.20;;;;;;5013871;28;20398;-63
2023/06/07 11:06:05;;;;;;;1.80;1.70;;;29.70;65.10;;;;;;5013829;28;20564;-63
2023/06/07 11:08:32;;;;;;;1.40;1.40;;;29.30;64.60;;;;;;5014579;28;20493;-63
2023/06/07 11:11:00;;;;;;;1.50;1.40;;;29.20;66.30;;;;;;4996497;28;20380;-63
2023/06/07 11:13:38;;;;;;;1.50;1.40;;;29.00;66.60;;;;;;5013811;28;20438;-63
2023/06/07 11:16:22;;;;;;;1.20;1.20;;;28.50;66.70;;;;;;5014616;28;20778;-63
2023/06/07 11:19:00;;;;;;;1.60;1.50;;;27.90;67.50;;;;;;5013959;28;20435;-62
2023/06/07 11:21:29;;;;;;;1.30;1.30;;;27.00;66.70;;;;;;5014166;28;20489;-63
2023/06/07 11:24:13;;;;;;;1.77;1.67;;;26.50;66.60;;;;;;5013474;28;20423;-63
2023/06/07 11:26:40;;;;;;;1.40;1.37;;;26.10;72.70;;;;;;5013817;28;20397;-63
2023/06/07 11:29:07;;;;;;;1.27;1.17;;;26.00;74.30;;;;;;5013915;28;20504;-63
2023/06/07 11:31:33;;;;;;;1.80;1.70;;;26.10;75.70;;;;;;5013911;28;20446;-63
2023/06/07 11:33:59;;;;;;;1.33;1.30;;;26.10;75.20;;;;;;5013581;28;20951;-63
2023/06/07 11:36:24;;;;;;;1.00;1.00;;;26.20;74.90;;;;;;5013543;28;20285;-63
2023/06/07 11:38:55;;;;;;;1.23;1.20;;;26.10;73.40;;;;;;5013691;28;20299;-63
2023/06/07 11:41:24;;;;;;;1.47;1.40;;;26.00;74.70;;;;;;5013741;28;20179;-63
2023/06/07 11:43:49;;;;;;;1.57;1.47;;;25.80;77.50;;;;;;5013089;28;20507;-63
2023/06/07 11:46:17;;;;;;;1.57;1.47;;;25.80;79.80;;;;;;5013430;28;20506;-64
2023/06/07 11:48:43;;;;;;;1.70;1.63;;;25.80;79.60;;;;;;4995982;28;20179;-63
2023/06/07 11:51:08;;;;;;;2.00;1.40;;;25.90;80.50;;;;;;5013345;28;20444;-63
2023/06/07 11:53:34;;;;;;;1.27;1.27;;;25.90;74.50;;;;;;5012923;28;20465;-63
2023/06/07 11:56:01;;;;;;;1.60;1.50;;;25.90;74.30;;;;;;4995767;28;20198;-63
2023/06/07 11:58:27;;;;;;;1.27;1.23;;;26.00;75.30;;;;;;5013499;28;20592;-63
2023/06/07 12:00:54;;;;;;;1.37;1.30;;;26.00;74.50;;;;;;4995985;28;20414;-63
2023/06/07 12:03:21;;;;;;;1.40;1.30;;;25.90;73.80;;;;;;5012960;28;20483;-63
2023/06/07 12:05:47;;;;;;;1.43;1.33;;;25.80;72.80;;;;;;5013412;28;20888;-64
2023/06/07 12:08:15;;;;;;;1.50;1.50;;;25.70;75.20;;;;;;5013389;28;20787;-64
2023/06/07 12:10:41;;;;;;;1.70;1.60;;;25.60;76.60;;;;;;5015178;28;20413;-63
2023/06/07 12:13:16;;;;;;;1.23;1.23;;;25.50;79.40;;;;;;5017160;28;20899;-64
2023/06/07 12:15:51;;;;;;;1.53;1.50;;;25.50;77.80;;;;;;5017090;28;20445;-64
2023/06/07 12:18:22;;;;;;;1.40;1.40;;;25.40;77.60;;;;;;5016664;28;20576;-63
2023/06/07 12:20:48;;;;;;;1.00;1.00;;;25.40;77.70;;;;;;5016790;28;20456;-64
2023/06/07 12:23:19;;;;;;;1.13;1.13;;;25.40;74.80;;;;;;5016648;28;20467;-64
2023/06/07 12:25:45;;;;;;;1.27;1.27;;;25.10;74.80;;;;;;5017030;28;20487;-64
2023/06/07 12:28:12;;;;;;;1.20;1.20;;;25.10;75.40;;;;;;5017083;28;20422;-64
2023/06/07 12:30:40;;;;;;;0.90;0.90;;;25.10;74.30;;;;;;5017637;28;20171;-63
2023/06/07 12:33:13;;;;;;;1.47;1.37;;;25.00;74.00;;;;;;5016580;28;20417;-63
2023/06/07 12:35:44;;;;;;;1.90;1.80;;;25.00;74.20;;;;;;5017126;28;20412;-63
2023/06/07 12:38:11;;;;;;;1.47;1.30;;;25.10;74.70;;;;;;5016758;28;20951;-63
2023/06/07 12:40:36;;;;;;;1.70;1.60;;;25.10;76.80;;;;;;5016662;28;20373;-63
2023/06/07 12:43:02;;;;;;;1.33;1.00;;;25.20;75.10;;;;;;5016652;28;20390;-64
2023/06/07 12:45:28;;;;;;;1.10;1.10;;;25.20;71.70;;;;;;5016472;28;20187;-63
2023/06/07 12:47:54;;;;;;;1.00;1.00;;;25.20;71.30;;;;;;5016769;28;20414;-64
2023/06/07 12:50:20;;;;;;;1.27;1.27;;;25.20;71.20;;;;;;5016720;28;20179;-62
2023/06/07 12:52:46;;;;;;;1.07;1.07;;;25.30;73.20;;;;;;5016770;28;20187;-62
2023/06/07 12:55:12;;;;;;;1.50;1.40;;;25.50;71.60;;;;;;5016184;28;20460;-65
2023/06/07 12:57:37;;;;;;;1.10;1.10;;;25.50;74.80;;;;;;5015883;28;20226;-63
2023/06/07 13:00:03;;;;;;;1.00;1.00;;;25.30;76.10;;;;;;5016597;28;20410;-63
2023/06/07 13:02:29;;;;;;;1.40;1.30;;;25.30;77.60;;;;;;5015670;28;20207;-62
2023/06/07 13:04:55;;;;;;;1.43;1.37;;;25.40;77.10;;;;;;5016036;28;20465;-63
2023/06/07 13:07:21;;;;;;;1.60;1.50;;;25.50;75.40;;;;;;5015639;28;20568;-64
2023/06/07 13:09:47;;;;;;;1.50;1.30;;;25.50;73.50;;;;;;5016192;28;20596;-63
2023/06/07 13:12:15;;;;;;;1.60;1.50;;;25.50;74.00;;;;;;5015623;28;20418;-64
2023/06/07 13:14:41;;;;;;;1.60;1.50;;;25.40;75.50;;;;;;5015884;28;20423;-64
2023/06/07 13:17:07;;;;;;;1.50;1.40;;;25.40;75.70;;;;;;5015731;28;20402;-64
2023/06/07 13:19:33;;;;;;;1.33;1.23;;;25.30;74.50;;;;;;5016138;28;20848;-64
2023/06/07 13:21:59;;;;;;;1.57;1.47;;;25.30;76.50;;;;;;4997553;28;20448;-63
2023/06/07 13:24:24;;;;;;;0.97;0.97;;;25.30;75.30;;;;;;5015581;28;20680;-63
2023/06/07 13:26:50;;;;;;;1.00;1.00;;;25.30;72.80;;;;;;5015519;28;20413;-63
2023/06/07 13:29:16;;;;;;;1.20;1.20;;;25.20;73.60;;;;;;5015525;28;20266;-63
2023/06/07 13:31:41;;;;;;;1.50;1.40;;;25.20;73.90;;;;;;5015787;28;20381;-64
2023/06/07 13:34:07;;;;;;;1.20;1.20;;;25.10;73.90;;;;;;5015324;28;20591;-63
2023/06/07 13:36:33;;;;;;;1.10;1.10;;;25.10;73.90;;;;;;5015677;28;20221;-63
2023/06/07 13:38:58;;;;;;;1.00;1.00;;;25.20;74.30;;;;;;4998177;28;20398;-63
2023/06/07 13:41:26;;;;;;;1.20;1.20;;;25.20;73.70;;;;;;5015635;28;20266;-64
2023/06/07 13:43:51;;;;;;;1.03;1.03;;;25.30;71.00;;;;;;5015467;28;20170;-63
2023/06/07 13:46:17;;;;;;;1.07;1.07;;;25.20;71.00;;;;;;5015459;28;20520;-63
2023/06/07 13:48:43;;;;;;;0.97;0.97;;;25.30;72.30;;;;;;5015542;28;20175;-63
2023/06/07 13:51:10;;;;;;;1.10;1.10;;;25.30;73.60;;;;;;5015390;28;20175;-64
2023/06/07 13:53:37;;;;;;;1.20;1.20;;;25.30;74.60;;;;;;5014852;28;20931;-64
2023/06/07 13:56:03;;;;;;;0.90;0.90;;;25.40;74.10;;;;;;5015105;28;20434;-63
2023/06/07 13:58:33;;;;;;;2.07;1.63;;;25.60;72.90;;;;;;5015341;28;20454;-63
2023/06/07 14:01:02;;;;;;;1.00;1.00;;;25.60;71.50;;;;;;5015314;28;20389;-64
2023/06/07 14:03:29;;;;;;;0.87;0.87;;;25.60;71.50;;;;;;5014933;28;20438;-64
2023/06/07 14:05:55;;;;;;;1.30;1.20;;;25.60;70.30;;;;;;5014936;28;20427;-63
2023/06/07 14:08:20;;;;;;;1.23;1.23;;;25.50;71.20;;;;;;4997470;28;20393;-63
2023/06/07 14:10:46;;;;;;;2.90;1.47;;;25.50;71.40;;;;;;5014851;28;20245;-63
2023/06/07 14:13:14;;;;;;;1.87;1.77;;;25.40;70.70;;;;;;5014967;28;20175;-64
2023/06/07 14:15:40;;;;;;;1.07;0.93;;;25.40;70.70;;;;;;5014638;28;20256;-63
2023/06/07 14:18:07;;;;;;;1.23;1.13;;;25.30;68.60;;;;;;5014798;28;20428;-64
2023/06/07 14:20:32;;;;;;;1.27;1.27;;;25.30;68.80;;;;;;4997347;28;20167;-64
2023/06/07 14:22:58;;;;;;;1.10;1.00;;;25.20;68.00;;;;;;5014779;28;20414;-63
2023/06/07 14:25:24;;;;;;;1.40;1.30;;;25.10;67.30;;;;;;5014555;28;20550;-63
2023/06/07 14:27:49;;;;;;;0.83;0.83;;;25.10;67.60;;;;;;5014986;28;20560;-63
2023/06/07 14:30:15;;;;;;;0.97;0.93;;;25.10;68.60;;;;;;4997066;28;20182;-64
2023/06/07 14:32:41;;;;;;;0.80;0.80;;;25.10;67.80;;;;;;5013998;28;20178;-64
2023/06/07 14:35:07;;;;;;;1.10;1.10;;;25.00;67.90;;;;;;5014221;28;20740;-64
2023/06/07 14:37:33;;;;;;;0.93;0.93;;;25.00;67.00;;;;;;5014531;28;20178;-63
2023/06/07 14:39:58;;;;;;;0.93;0.90;;;25.00;67.70;;;;;;4996670;28;20774;-63
2023/06/07 14:42:24;;;;;;;0.80;0.80;;;25.00;68.30;;;;;;5014382;28;20171;-63
2023/06/07 14:44:53;;;;;;;0.90;0.90;;;25.00;69.00;;;;;;5014101;28;20194;-63
2023/06/07 14:47:19;;;;;;;1.50;1.40;;;25.00;69.20;;;;;;5014435;28;20503;-64
2023/06/07 14:49:46;;;;;;;1.20;1.00;;;25.00;67.60;;;;;;5014408;28;20741;-64
2023/06/07 14:52:12;;;;;;;1.00;0.90;;;25.10;67.30;;;;;;5014208;28;20508;-63
2023/06/07 14:54:37;;;;;;;0.97;0.93;;;25.10;66.90;;;;;;5013735;28;20468;-63
2023/06/07 14:57:03;;;;;;;1.43;1.33;;;25.10;68.50;;;;;;5014163;28;20784;-63
2023/06/07 14:59:29;;;;;;;1.50;1.40;;;25.20;67.90;;;;;;5013930;28;20242;-63
2023/06/07 15:01:55;;;;;;;3.10;1.70;;;25.20;67.20;;;;;;5014394;28;20402;-63
2023/06/07 15:04:21;;;;;;;1.30;1.23;;;25.30;65.70;;;;;;5013714;28;20471;-64
2023/06/07 15:06:46;;;;;;;1.53;1.43;;;25.30;63.70;;;;;;5013969;28;20549;-63
2023/06/07 15:09:12;;;;;;;1.30;1.20;;;25.20;63.60;;;;;;5014228;28;20529;-64
2023/06/07 15:11:38;;;;;;;1.00;1.00;;;25.10;63.70;;;;;;5014108;28;20424;-64
2023/06/07 15:14:03;;;;;;;1.20;1.20;;;25.10;65.10;;;;;;5013484;28;20221;-63
2023/06/07 15:16:29;;;;;;;1.27;1.27;;;25.10;66.40;;;;;;5013868;28;20209;-64
2023/06/07 15:18:55;;;;;;;1.33;1.30;;;25.10;67.40;;;;;;5013812;28;20293;-64
2023/06/07 15:21:20;;;;;;;1.50;1.40;;;25.10;67.10;;;;;;5013773;28;20181;-63
2023/06/07 15:23:46;;;;;;;1.93;1.83;;;25.10;66.50;;;;;;5013623;28;20266;-64
2023/06/07 15:26:12;;;;;;;1.10;1.10;;;25.10;68.50;;;;;;5013831;28;20219;-64
2023/06/07 15:28:37;;;;;;;1.50;1.13;;;25.10;68.70;;;;;;5013686;28;20188;-64
2023/06/07 15:31:03;;;;;;;1.43;1.33;;;25.10;67.90;;;;;;5013554;28;20187;-64
2023/06/07 15:33:29;;;;;;;1.40;1.30;;;25.10;68.50;;;;;;5013632;28;20190;-63
2023/06/07 15:35:54;;;;;;;1.30;1.20;;;25.10;67.90;;;;;;5013733;28;20541;-63
2023/06/07 15:38:20;;;;;;;1.43;1.33;;;25.10;68.20;;;;;;5013696;28;20256;-63
2023/06/07 15:40:46;;;;;;;1.13;1.13;;;25.10;68.60;;;;;;5013543;28;20178;-64
2023/06/07 15:43:12;;;;;;;1.17;1.17;;;25.00;67.20;;;;;;5013319;28;20412;-64
2023/06/07 15:45:38;;;;;;;1.70;1.60;;;25.00;65.80;;;;;;5013487;28;20223;-63
2023/06/07 15:48:04;;;;;;;1.20;1.20;;;24.90;66.30;;;;;;5013588;28;20429;-63
2023/06/07 15:50:31;;;;;;;1.27;1.27;;;24.80;66.30;;;;;;5013645;28;20560;-63
2023/06/07 15:52:57;;;;;;;1.17;1.17;;;24.70;65.10;;;;;;5013287;28;20433;-63
2023/06/07 15:55:24;;;;;;;1.20;1.10;;;24.70;65.50;;;;;;4995422;28;20438;-63
2023/06/07 15:57:50;;;;;;;1.60;1.50;;;24.70;66.80;;;;;;5013458;28;20412;-64
2023/06/07 16:00:16;;;;;;;1.23;1.23;;;24.70;67.20;;;;;;5013571;28;20841;-63
2023/06/07 16:02:42;;;;;;;2.27;1.33;;;24.60;65.80;;;;;;5013264;28;20444;-64
2023/06/07 16:05:08;;;;;;;1.23;1.23;;;24.60;66.50;;;;;;5012794;28;20515;-63
2023/06/07 16:07:33;;;;;;;1.50;1.40;;;24.60;66.00;;;;;;5013116;28;20276;-64
2023/06/07 16:09:59;;;;;;;1.30;1.30;;;24.60;65.80;;;;;;5013549;28;20175;-64
2023/06/07 16:12:24;;;;;;;1.90;1.80;;;24.50;65.80;;;;;;5013335;28;20187;-64
2023/06/07 16:14:50;;;;;;;1.63;1.40;;;24.50;65.40;;;;;;5013134;28;20615;-64
2023/06/07 16:17:16;;;;;;;1.20;1.20;;;24.50;66.40;;;;;;5013153;28;20171;-64
2023/06/07 16:19:41;;;;;;;1.53;1.43;;;24.50;67.50;;;;;;5013143;28;20202;-63
2023/06/07 16:22:07;;;;;;;1.47;1.37;;;24.50;68.50;;;;;;5013337;28;20198;-63
2023/06/07 16:24:33;;;;;;;1.40;1.40;;;24.50;66.10;;;;;;5012927;28;20691;-63
2023/06/07 16:26:59;;;;;;;1.30;1.20;;;24.50;65.60;;;;;;5013126;28;20530;-63
2023/06/07 16:29:25;;;;;;;0.87;0.87;;;24.50;63.00;;;;;;5013152;28;20413;-63
2023/06/07 16:31:50;;;;;;;1.33;1.23;;;24.50;62.70;;;;;;5013010;28;20177;-63
2023/06/07 16:34:16;;;;;;;1.33;1.33;;;24.40;62.80;;;;;;5012715;28;20271;-64
2023/06/07 16:36:41;;;;;;;1.30;1.20;;;24.40;62.20;;;;;;5013340;28;20645;-63
2023/06/07 16:39:07;;;;;;;1.20;1.20;;;24.40;63.60;;;;;;5013088;28;20234;-64
2023/06/07 16:41:40;;;;;;;1.57;1.47;;;24.40;62.90;;;;;;5012966;28;20179;-64
2023/06/07 16:44:07;;;;;;;1.33;1.33;;;24.40;62.00;;;;;;5012733;28;20463;-63
2023/06/07 16:46:32;;;;;;;1.37;1.37;;;24.40;62.10;;;;;;5012988;28;20384;-63
2023/06/07 16:48:58;;;;;;;1.33;1.23;;;24.40;62.10;;;;;;5012877;28;20427;-64
2023/06/07 16:51:24;;;;;;;1.10;1.10;;;24.20;58.50;;;;;;5013496;28;20186;-64
2023/06/07 16:53:49;;;;;;;1.40;1.30;;;24.20;58.90;;;;;;5012760;28;20205;-64